createdAt,value
2022-08-26T00:00:07.101Z,5.73
2022-08-26T00:02:59.438Z,4.10
2022-08-26T00:05:47.787Z,8.27
2022-08-26T00:08:34.710Z,7.87
2022-08-26T00:11:26.417Z,6.03
2022-08-26T00:14:14.974Z,4.37
2022-08-26T00:17:01.295Z,4.83
2022-08-26T00:19:47.741Z,4.50
2022-08-26T00:22:34.447Z,4.30
2022-08-26T00:25:21.689Z,5.67
2022-08-26T00:28:07.961Z,6.17
2022-08-26T00:30:57.522Z,5.73
2022-08-26T00:33:43.955Z,6.27
2022-08-26T00:36:31.874Z,6.27
2022-08-26T00:39:18.093Z,7.13
2022-08-26T00:42:05.410Z,6.07
2022-08-26T00:44:51.695Z,5.73
2022-08-26T00:47:46.122Z,3.83
2022-08-26T00:50:38.442Z,5.13
2022-08-26T00:53:30.334Z,5.03
2022-08-26T00:56:42.978Z,5.77
2022-08-26T00:59:32.696Z,4.87
2022-08-26T01:02:20.735Z,5.00
2022-08-26T01:05:11.354Z,6.10
2022-08-26T01:07:58.239Z,4.60
2022-08-26T01:10:44.968Z,7.00
2022-08-26T01:13:32.466Z,4.27
2022-08-26T01:16:21.602Z,5.23
2022-08-26T01:19:45.752Z,4.63
2022-08-26T01:22:53.466Z,5.70
2022-08-26T01:25:44.306Z,4.70
2022-08-26T01:28:33.911Z,7.10
2022-08-26T01:31:25.190Z,6.93
2022-08-26T01:34:17.598Z,5.20
2022-08-26T01:37:18.325Z,4.70
2022-08-26T01:40:07.427Z,4.43
2022-08-26T01:42:54.879Z,4.57
2022-08-26T01:45:41.932Z,5.33
2022-08-26T01:48:31.792Z,4.87
2022-08-26T01:51:19.746Z,7.00
2022-08-26T01:54:08.119Z,7.17
2022-08-26T01:56:58.805Z,5.33
2022-08-26T01:59:45.839Z,5.63
2022-08-26T02:02:32.131Z,5.07
2022-08-26T02:05:22.008Z,4.57
2022-08-26T02:08:08.857Z,4.70
2022-08-26T02:10:55.937Z,6.50
2022-08-26T02:14:02.802Z,5.17
2022-08-26T02:16:52.805Z,5.17
2022-08-26T02:19:45.121Z,4.83
2022-08-26T02:22:32.769Z,5.87
2022-08-26T02:25:31.411Z,5.40
2022-08-26T02:28:19.716Z,4.90
2022-08-26T02:31:06.299Z,4.30
2022-08-26T02:33:54.687Z,7.73
2022-08-26T02:36:41.302Z,5.53
2022-08-26T02:39:29.611Z,5.27
2022-08-26T02:42:15.922Z,4.67
2022-08-26T02:45:02.201Z,5.20
2022-08-26T02:47:50.498Z,5.93
2022-08-26T02:50:38.142Z,7.73
2022-08-26T02:53:25.772Z,5.97
2022-08-26T02:56:12.261Z,6.97
2022-08-26T02:58:58.553Z,5.53
2022-08-26T03:01:49.334Z,5.07
2022-08-26T03:04:36.332Z,5.83
2022-08-26T03:07:25.994Z,8.27
2022-08-26T03:10:13.169Z,8.40
2022-08-26T03:13:01.331Z,5.87
2022-08-26T03:15:51.640Z,5.87
2022-08-26T03:18:38.267Z,6.67
2022-08-26T03:21:24.941Z,7.03
2022-08-26T03:24:12.511Z,7.73
2022-08-26T03:26:59.045Z,6.73
2022-08-26T03:30:03.973Z,6.57
2022-08-26T03:32:50.941Z,5.80
2022-08-26T03:35:40.130Z,7.77
2022-08-26T03:38:26.333Z,6.50
2022-08-26T03:41:12.925Z,5.13
2022-08-26T03:44:02.021Z,9.13
2022-08-26T03:46:49.788Z,5.77
2022-08-26T03:49:36.290Z,6.30
2022-08-26T03:52:22.574Z,6.57
2022-08-26T03:55:10.642Z,5.77
2022-08-26T03:57:56.810Z,8.73
2022-08-26T04:00:44.366Z,8.07
2022-08-26T04:03:51.652Z,5.80
2022-08-26T04:06:43.256Z,6.43
2022-08-26T04:09:31.383Z,5.80
2022-08-26T04:12:21.817Z,6.30
2022-08-26T04:15:12.082Z,6.67
2022-08-26T04:17:58.757Z,6.43
2022-08-26T04:20:47.214Z,7.27
2022-08-26T04:23:34.351Z,6.37
2022-08-26T04:26:39.589Z,5.10
2022-08-26T04:29:29.683Z,7.50
2022-08-26T04:32:16.498Z,5.00
2022-08-26T04:35:04.633Z,7.40
2022-08-26T04:37:51.359Z,6.40
2022-08-26T04:40:37.886Z,6.30
2022-08-26T04:43:28.398Z,5.37
2022-08-26T04:46:22.007Z,5.33
2022-08-26T04:49:08.893Z,5.57
2022-08-26T04:51:55.308Z,6.27
2022-08-26T04:54:42.221Z,6.13
2022-08-26T04:57:28.514Z,7.00
2022-08-26T05:00:15.663Z,7.80
2022-08-26T05:03:01.911Z,7.87
2022-08-26T05:05:50.907Z,5.67
2022-08-26T05:08:38.014Z,7.77
2022-08-26T05:11:24.588Z,7.33
2022-08-26T05:14:11.111Z,6.37
2022-08-26T05:16:57.476Z,5.23
2022-08-26T05:19:44.075Z,5.70
2022-08-26T05:22:30.676Z,6.43
2022-08-26T05:25:18.432Z,4.83
2022-08-26T05:28:04.814Z,6.17
2022-08-26T05:30:52.173Z,6.23
2022-08-26T05:33:38.463Z,6.07
2022-08-26T05:36:29.934Z,5.93
2022-08-26T05:39:17.334Z,6.00
2022-08-26T05:42:05.635Z,6.97
2022-08-26T05:44:55.605Z,5.93
2022-08-26T05:47:42.635Z,5.70
2022-08-26T05:50:29.049Z,5.87
2022-08-26T05:53:20.606Z,7.50
2022-08-26T05:56:08.379Z,6.20
2022-08-26T05:58:58.424Z,6.10
2022-08-26T06:01:45.113Z,6.53
2022-08-26T06:04:31.748Z,9.17
2022-08-26T06:07:38.518Z,7.33
2022-08-26T06:10:32.542Z,6.27
2022-08-26T06:13:22.426Z,9.40
2022-08-26T06:16:12.303Z,5.97
2022-08-26T06:18:58.826Z,9.07
2022-08-26T06:21:51.270Z,6.87
2022-08-26T06:25:00.611Z,6.87
2022-08-26T06:27:47.727Z,9.03
2022-08-26T06:30:40.556Z,10.63
2022-08-26T06:33:28.746Z,8.80
2022-08-26T06:36:20.475Z,8.10
2022-08-26T06:39:10.683Z,8.63
2022-08-26T06:41:56.882Z,9.03
2022-08-26T06:44:44.683Z,6.17
2022-08-26T06:47:31.380Z,13.60
2022-08-26T06:50:20.698Z,9.60
2022-08-26T06:53:08.936Z,8.53
2022-08-26T06:55:55.765Z,10.93
2022-08-26T06:58:43.561Z,7.50
2022-08-26T07:01:33.553Z,9.23
2022-08-26T07:04:22.417Z,11.53
2022-08-26T07:07:14.239Z,12.23
2022-08-26T07:10:00.917Z,10.80
2022-08-26T07:12:49.413Z,15.60
2022-08-26T07:15:39.985Z,9.30
2022-08-26T07:18:26.315Z,11.20
2022-08-26T07:21:15.167Z,11.13
2022-08-26T07:24:01.792Z,15.93
2022-08-26T07:26:48.029Z,28.17
2022-08-26T07:29:35.905Z,19.90
2022-08-26T07:32:23.080Z,18.17
2022-08-26T07:35:09.725Z,17.40
2022-08-26T07:37:57.194Z,16.47
2022-08-26T07:40:43.848Z,17.63
2022-08-26T07:43:30.898Z,14.43
2022-08-26T07:46:20.790Z,15.30
2022-08-26T07:49:13.522Z,13.90
2022-08-26T07:52:01.306Z,14.03
2022-08-26T07:54:48.266Z,9.53
2022-08-26T07:57:34.837Z,13.33
2022-08-26T08:00:22.554Z,11.23
2022-08-26T08:03:09.176Z,10.17
2022-08-26T08:05:55.701Z,8.60
2022-08-26T08:08:42.639Z,8.63
2022-08-26T08:11:30.953Z,9.70
2022-08-26T08:14:18.201Z,7.63
2022-08-26T08:17:08.894Z,6.27
2022-08-26T08:19:55.222Z,7.67
2022-08-26T08:22:42.446Z,11.70
2022-08-26T08:25:31.466Z,7.60
2022-08-26T08:28:17.689Z,11.60
2022-08-26T08:31:05.159Z,11.57
2022-08-26T08:33:53.816Z,16.47
2022-08-26T08:36:40.336Z,9.03
2022-08-26T08:39:28.006Z,9.90
2022-08-26T08:42:33.274Z,7.47
2022-08-26T08:45:26.053Z,6.65
2022-08-26T08:48:31.695Z,10.13
2022-08-26T08:51:42.554Z,9.57
2022-08-26T08:54:32.226Z,12.50
2022-08-26T08:57:35.753Z,17.15
2022-08-26T09:00:30.091Z,12.98
2022-08-26T09:03:31.059Z,9.65
2022-08-26T09:06:18.697Z,12.43
2022-08-26T09:09:08.006Z,8.98
2022-08-26T09:11:56.435Z,6.15
2022-08-26T09:14:44.986Z,6.15
2022-08-26T09:17:49.559Z,8.07
2022-08-26T09:20:54.722Z,8.95
2022-08-26T09:23:43.114Z,8.07
2022-08-26T09:26:43.506Z,8.20
2022-08-26T09:29:33.899Z,8.65
2022-08-26T09:32:25.340Z,9.43
2022-08-26T09:35:30.063Z,9.48
2022-08-26T09:38:32.727Z,8.68
2022-08-26T09:41:26.618Z,10.05
2022-08-26T09:44:20.745Z,9.75
2022-08-26T09:47:08.831Z,8.65
2022-08-26T09:50:09.533Z,7.60
2022-08-26T09:53:16.938Z,7.82
2022-08-26T09:56:21.399Z,12.63
2022-08-26T09:59:11.245Z,7.57
2022-08-26T10:02:24.997Z,8.32
2022-08-26T10:05:27.725Z,9.20
2022-08-26T10:08:34.231Z,8.13
2022-08-26T10:11:39.680Z,8.57
2022-08-26T10:14:39.818Z,10.88
2022-08-26T10:17:39.760Z,7.55
2022-08-26T10:20:31.159Z,7.20
2022-08-26T10:23:24.522Z,6.85
2022-08-26T10:26:40.324Z,7.47
2022-08-26T10:29:38.783Z,7.70
2022-08-26T10:32:51.445Z,10.68
2022-08-26T10:35:51.834Z,8.07
2022-08-26T10:38:41.005Z,10.48
2022-08-26T10:41:36.202Z,9.10
2022-08-26T10:44:24.864Z,7.15
2022-08-26T10:47:41.470Z,9.20
2022-08-26T10:50:39.091Z,8.05
2022-08-26T10:53:55.817Z,9.88
2022-08-26T10:57:01.992Z,8.30
2022-08-26T10:59:51.684Z,9.68
2022-08-26T11:02:48.159Z,11.38
2022-08-26T11:05:34.325Z,11.57
2022-08-26T11:08:20.557Z,8.95
2022-08-26T11:11:08.295Z,6.72
2022-08-26T11:13:58.308Z,9.43
2022-08-26T11:16:51.902Z,8.57
2022-08-26T11:19:59.287Z,7.13
2022-08-26T11:22:48.011Z,6.25
2022-08-26T11:25:55.593Z,10.20
2022-08-26T11:28:49.172Z,8.63
2022-08-26T11:31:54.526Z,10.55
2022-08-26T11:34:55.094Z,8.20
2022-08-26T11:37:46.605Z,7.07
2022-08-26T11:40:38.292Z,7.65
2022-08-26T11:43:30.251Z,8.38
2022-08-26T11:46:25.866Z,6.30
2022-08-26T11:49:13.645Z,7.95
2022-08-26T11:52:22.016Z,5.82
2022-08-26T11:55:14.337Z,11.48
2022-08-26T11:58:04.704Z,10.38
2022-08-26T12:00:54.329Z,7.30
2022-08-26T12:03:47.138Z,6.50
2022-08-26T12:06:50.958Z,10.77
2022-08-26T12:09:49.997Z,7.93
2022-08-26T12:12:38.634Z,8.25
2022-08-26T12:15:27.540Z,8.18
2022-08-26T12:18:28.808Z,8.43
2022-08-26T12:21:24.765Z,8.90
2022-08-26T12:24:18.578Z,6.60
2022-08-26T12:27:22.365Z,8.60
2022-08-26T12:30:17.997Z,8.63
2022-08-26T12:33:22.140Z,10.57
2022-08-26T12:36:10.094Z,9.82
2022-08-26T12:38:58.498Z,10.82
2022-08-26T12:41:52.306Z,10.65
2022-08-26T12:45:00.552Z,13.18
2022-08-26T12:47:47.133Z,11.10
2022-08-26T12:50:36.007Z,11.77
2022-08-26T12:53:25.173Z,10.90
2022-08-26T12:56:25.115Z,10.63
2022-08-26T12:59:17.654Z,11.13
2022-08-26T13:02:04.321Z,9.68
2022-08-26T13:05:00.675Z,12.68
2022-08-26T13:08:16.971Z,14.48
2022-08-26T13:11:18.442Z,10.43
2022-08-26T13:14:11.168Z,11.90
2022-08-26T13:16:58.263Z,15.35
2022-08-26T13:19:44.657Z,12.13
2022-08-26T13:22:31.791Z,8.65
2022-08-26T13:25:19.681Z,12.25
2022-08-26T13:28:06.178Z,12.35
2022-08-26T13:30:53.006Z,11.63
2022-08-26T13:33:39.801Z,8.55
2022-08-26T13:36:28.221Z,8.68
2022-08-26T13:39:14.435Z,10.60
2022-08-26T13:42:00.710Z,9.45
2022-08-26T13:44:50.596Z,8.90
2022-08-26T13:47:37.885Z,15.75
2022-08-26T13:50:24.097Z,12.05
2022-08-26T13:53:10.674Z,8.68
2022-08-26T13:55:59.200Z,7.70
2022-08-26T13:58:46.225Z,9.82
2022-08-26T14:01:32.801Z,12.95
2022-08-26T14:04:26.984Z,10.25
2022-08-26T14:07:13.819Z,10.40
2022-08-26T14:10:00.426Z,9.25
2022-08-26T14:12:46.629Z,12.43
2022-08-26T14:15:35.795Z,12.00
2022-08-26T14:18:39.689Z,12.65
2022-08-26T14:21:33.788Z,12.25
2022-08-26T14:24:20.391Z,8.68
2022-08-26T14:27:06.750Z,9.77
2022-08-26T14:29:53.714Z,9.23
2022-08-26T14:32:44.614Z,10.18
2022-08-26T14:35:31.173Z,6.47
2022-08-26T14:38:18.115Z,6.93
2022-08-26T14:41:04.437Z,9.18
2022-08-26T14:44:00.244Z,8.77
2022-08-26T14:46:49.536Z,13.00
2022-08-26T14:49:36.322Z,7.82
2022-08-26T14:52:23.089Z,6.85
2022-08-26T14:55:09.814Z,10.75
2022-08-26T14:57:56.649Z,7.95
2022-08-26T15:00:43.409Z,6.88
2022-08-26T15:03:29.510Z,7.68
2022-08-26T15:06:17.460Z,11.45
2022-08-26T15:09:04.887Z,9.13
2022-08-26T15:11:53.099Z,7.13
2022-08-26T15:14:39.826Z,8.90
2022-08-26T15:17:26.437Z,8.80
2022-08-26T15:20:13.209Z,10.90
2022-08-26T15:23:03.305Z,9.45
2022-08-26T15:25:52.762Z,13.27
2022-08-26T15:28:39.469Z,8.32
2022-08-26T15:31:31.432Z,9.23
2022-08-26T15:34:18.391Z,11.25
2022-08-26T15:37:06.085Z,8.82
2022-08-26T15:39:52.862Z,9.50
2022-08-26T15:42:39.374Z,7.07
2022-08-26T15:45:26.325Z,9.67
2022-08-26T15:48:12.816Z,7.40
2022-08-26T15:51:02.574Z,9.90
2022-08-26T15:53:49.527Z,9.83
2022-08-26T15:56:38.334Z,7.57
2022-08-26T15:59:25.369Z,10.43
2022-08-26T16:02:11.637Z,12.63
2022-08-26T16:04:58.177Z,11.83
2022-08-26T16:07:45.910Z,10.27
2022-08-26T16:10:35.668Z,13.47
2022-08-26T16:13:22.017Z,10.60
2022-08-26T16:16:08.825Z,10.63
2022-08-26T16:18:55.366Z,8.80
2022-08-26T16:21:42.535Z,8.37
2022-08-26T16:24:30.622Z,7.90
2022-08-26T16:27:17.014Z,7.20
2022-08-26T16:30:06.914Z,6.20
2022-08-26T16:32:55.336Z,7.10
2022-08-26T16:35:43.142Z,8.70
2022-08-26T16:38:29.628Z,9.13
2022-08-26T16:41:16.728Z,7.43
2022-08-26T16:44:03.762Z,6.17
2022-08-26T16:46:50.471Z,6.37
2022-08-26T16:49:42.786Z,9.03
2022-08-26T16:52:31.311Z,5.30
2022-08-26T16:55:18.705Z,6.00
2022-08-26T16:58:05.332Z,7.47
2022-08-26T17:00:51.614Z,4.53
2022-08-26T17:03:37.878Z,7.10
2022-08-26T17:06:24.444Z,5.63
2022-08-26T17:09:10.922Z,5.03
2022-08-26T17:11:57.857Z,9.57
2022-08-26T17:14:44.281Z,7.70
2022-08-26T17:17:32.273Z,5.63
2022-08-26T17:20:19.907Z,5.23
2022-08-26T17:23:06.314Z,4.80
2022-08-26T17:25:52.771Z,6.53
2022-08-26T17:28:39.789Z,7.40
2022-08-26T17:31:26.996Z,4.60
2022-08-26T17:34:13.339Z,5.93
2022-08-26T17:36:59.985Z,6.23
2022-08-26T17:39:46.524Z,5.27
2022-08-26T17:42:33.071Z,6.40
2022-08-26T17:48:08.016Z,5.00
2022-08-26T17:50:55.028Z,5.30
2022-08-26T17:53:41.988Z,7.03
2022-08-26T17:56:29.881Z,6.53
2022-08-26T17:59:16.213Z,7.00
2022-08-26T18:02:03.076Z,7.13
2022-08-26T18:04:50.005Z,7.50
2022-08-26T18:07:37.747Z,7.70
2022-08-26T18:10:31.287Z,7.63
2022-08-26T18:13:18.867Z,7.93
2022-08-26T18:16:06.682Z,6.43
2022-08-26T18:18:53.947Z,6.57
2022-08-26T18:21:40.138Z,6.73
2022-08-26T18:24:30.242Z,8.50
2022-08-26T18:27:16.709Z,6.47
2022-08-26T18:30:16.454Z,7.37
2022-08-26T18:33:03.441Z,6.97
2022-08-26T18:35:49.698Z,6.80
2022-08-26T18:38:36.023Z,9.47
2022-08-26T18:41:26.357Z,7.87
2022-08-26T18:44:14.129Z,6.80
2022-08-26T18:47:00.841Z,7.47
2022-08-26T18:49:47.560Z,8.07
2022-08-26T18:52:34.331Z,8.43
2022-08-26T18:55:20.984Z,7.70
2022-08-26T18:58:07.175Z,6.07
2022-08-26T19:00:53.450Z,7.17
2022-08-26T19:03:40.060Z,6.70
2022-08-26T19:06:29.333Z,9.60
2022-08-26T19:09:17.868Z,8.13
2022-08-26T19:12:04.762Z,9.13
2022-08-26T19:14:51.770Z,8.07
2022-08-26T19:17:38.061Z,13.43
2022-08-26T19:20:24.634Z,7.77
2022-08-26T19:23:30.512Z,8.30
2022-08-26T19:26:18.366Z,9.93
2022-08-26T19:29:05.259Z,8.67
2022-08-26T19:31:51.893Z,9.37
2022-08-26T19:34:38.341Z,8.73
2022-08-26T19:37:24.659Z,9.60
2022-08-26T19:40:11.197Z,8.57
2022-08-26T19:42:57.958Z,7.63
2022-08-26T19:45:44.650Z,9.40
2022-08-26T19:48:31.748Z,9.43
2022-08-26T19:51:24.280Z,8.10
2022-08-26T19:54:10.782Z,8.90
2022-08-26T19:56:57.353Z,7.43
2022-08-26T19:59:44.390Z,7.57
2022-08-26T20:02:30.729Z,12.10
2022-08-26T20:05:20.365Z,7.30
2022-08-26T20:08:06.735Z,7.80
2022-08-26T20:11:02.209Z,7.80
2022-08-26T20:13:48.743Z,8.63
2022-08-26T20:16:34.916Z,10.37
2022-08-26T20:19:40.358Z,10.30
2022-08-26T20:22:26.673Z,8.90
2022-08-26T20:25:13.075Z,12.17
2022-08-26T20:28:00.018Z,10.97
2022-08-26T20:30:46.472Z,9.43
2022-08-26T20:33:46.119Z,9.97
2022-08-26T20:36:33.730Z,10.13
2022-08-26T20:39:21.060Z,8.97
2022-08-26T20:42:07.375Z,12.47
2022-08-26T20:45:07.908Z,8.10
2022-08-26T20:47:54.151Z,8.63
2022-08-26T20:50:40.530Z,8.40
2022-08-26T20:53:28.358Z,10.87
2022-08-26T20:56:15.994Z,11.50
2022-08-26T20:59:04.042Z,10.63
2022-08-26T21:01:50.848Z,11.93
2022-08-26T21:04:37.331Z,9.10
2022-08-26T21:07:23.539Z,12.70
2022-08-26T21:10:10.818Z,12.47
2022-08-26T21:12:57.771Z,9.70
2022-08-26T21:15:45.037Z,10.23
2022-08-26T21:18:31.313Z,12.67
2022-08-26T21:21:17.691Z,9.60
2022-08-26T21:24:05.092Z,9.77
2022-08-26T21:26:51.253Z,11.77
2022-08-26T21:29:38.117Z,13.10
2022-08-26T21:32:24.522Z,10.57
2022-08-26T21:35:10.934Z,10.13
2022-08-26T21:37:57.561Z,10.93
2022-08-26T21:40:44.070Z,9.40
2022-08-26T21:43:35.564Z,13.60
2022-08-26T21:46:23.669Z,11.43
2022-08-26T21:49:12.430Z,12.00
2022-08-26T21:52:00.311Z,11.67
2022-08-26T21:54:49.337Z,12.87
2022-08-26T21:57:36.347Z,13.83
2022-08-26T22:00:24.283Z,10.87
2022-08-26T22:03:10.941Z,10.47
2022-08-26T22:05:57.836Z,15.13
2022-08-26T22:08:44.404Z,11.10
2022-08-26T22:11:31.962Z,9.87
2022-08-26T22:14:20.423Z,10.57
2022-08-26T22:17:06.926Z,11.73
2022-08-26T22:19:53.190Z,9.43
2022-08-26T22:22:39.652Z,10.73
2022-08-26T22:25:25.953Z,12.60
2022-08-26T22:28:12.279Z,9.97
2022-08-26T22:30:59.046Z,11.10
2022-08-26T22:33:45.898Z,13.47
2022-08-26T22:36:32.537Z,13.03
2022-08-26T22:39:22.162Z,16.00
2022-08-26T22:42:09.094Z,21.57
2022-08-26T22:44:55.340Z,19.07
2022-08-26T22:47:42.537Z,20.87
2022-08-26T22:50:28.785Z,21.97
2022-08-26T22:53:16.753Z,18.70
2022-08-26T22:56:03.882Z,21.73
2022-08-26T22:58:50.553Z,19.10
2022-08-26T23:01:39.319Z,22.70
2022-08-26T23:04:25.651Z,24.43
2022-08-26T23:07:12.109Z,26.13
2022-08-26T23:09:58.417Z,25.60
2022-08-26T23:12:44.654Z,25.60
2022-08-26T23:15:31.342Z,24.23
2022-08-26T23:18:17.605Z,28.60
2022-08-26T23:21:04.482Z,26.07
2022-08-26T23:23:50.981Z,27.07
2022-08-26T23:26:38.710Z,26.43
2022-08-26T23:29:24.905Z,26.23
2022-08-26T23:32:11.754Z,23.27
2022-08-26T23:34:59.530Z,28.97
2022-08-26T23:37:47.986Z,28.50
2022-08-26T23:40:37.096Z,26.83
2022-08-26T23:43:23.717Z,31.37
2022-08-26T23:46:11.640Z,27.43
2022-08-26T23:48:58.406Z,28.90
2022-08-26T23:52:03.580Z,24.53
2022-08-26T23:54:49.766Z,24.90
2022-08-26T23:57:36.614Z,26.00
